• Join FlightAware (Why Join?)
  • Login
  • US Flag 
09:14PM EDT


 

Airport Tracker/Info


-or-


 

Live Flight TrackerFlight Track Log ✈ N680AN ✈ 18-Jul-2013 ✈ KMIA - KBOS

Flight Track Log - Related Links

Times and Time Zones

All times are in EDT time to prevent confusion due to time zone crossing. See the N680AN flight status page for this flight to view local times or setup timezone preferences in your user account.

Time Position Orientation Groundspeed Altitude Reporting Facility
EDT Latitude Longitude Course Direction KTS MPH feet Rate Location/Type
09:40PM 25.7983 -80.2722 13° North 161 185 800  Level Miami Center
09:41PM 25.8058 -80.2147 82° East 223 257 2,900 2,100 Climbing Miami Center
09:43PM 26.0984 -80.1508 24° Northeast  Level FlightAware Approximate
09:43PM 25.8181 -80.1297 81° East 272 313 5,400  Level Miami Center
09:44PM 26.2020 -80.1025 20° North  Level FlightAware Approximate
09:44PM 25.8758 -80.0781 39° Northeast 302 348 7,000  Level Miami Center
09:44PM 25.9272 -80.1094 331° Northwest 302 348 8,100 2,340 Climbing Miami Center
09:45PM 26.3078 -80.0602 20° North  Level FlightAware Approximate
09:45PM 25.9906 -80.1736 318° Northwest 308 354 10,900  Level Miami Center
09:46PM 26.4066 -80.0109 13° North  Level FlightAware Approximate
09:46PM 26.0497 -80.2331 318° Northwest 308 354 13,500  Level Miami Center
09:47PM 26.1342 -80.2886 329° Northwest 322 371 15,000 1,860 Climbing Miami Center
09:48PM 26.2419 -80.3197 345° North 356 410 17,300 2,100 Climbing Miami Center
09:49PM 26.3500 -80.3483 347° North 386 444 19,300 1,980 Climbing Miami Center
09:50PM 26.4642 -80.3794 346° North 416 479 21,400 1,920 Climbing Miami Center
09:51PM 26.5800 -80.4156 344° North 416 479 23,200 1,680 Climbing Miami Center
09:52PM 26.6983 -80.4517 345° North 423 487 24,900 1,440 Climbing Miami Center
09:53PM 26.8183 -80.4903 344° North 437 503 26,200 1,260 Climbing Miami Center
09:54PM 26.9428 -80.5289 345° North 449 517 27,500 1,380 Climbing Miami Center
09:55PM 27.0694 -80.5586 348° North 455 524 29,000 1,380 Climbing Miami Center
09:56PM 27.2028 -80.5722 355° North 465 535 30,300 1,260 Climbing Miami Center
09:57PM 27.3358 -80.5858 355° North 471 542 31,600 1,440 Climbing Miami Center
09:58PM 27.4600 -80.5525 13° North 466 536 33,200 1,620 Climbing Miami Center
09:59PM 27.5786 -80.4814 28° Northeast 460 529 34,800 1,500 Climbing Miami Center
10:00PM 27.6931 -80.4122 28° Northeast 460 529 36,300 1,080 Climbing Miami Center
10:01PM 27.8056 -80.3428 29° Northeast 460 529 37,000 300 Climbing Miami Center
10:02PM 27.9217 -80.2806 25° Northeast 455 524 37,000  Level Miami Center
10:03PM 28.0256 -80.2203 27° Northeast 455 524 37,000  Level Miami Center
10:04PM 28.1375 -80.1531 28° Northeast 449 517 37,000  Level Miami Center
10:05PM 28.2583 -80.0789 28° Northeast 449 517 37,000  Level Miami Center
10:06PM 28.3725 -80.0136 27° Northeast 449 517 37,000  Level Miami Center
10:07PM 28.4803 -79.9481 28° Northeast 449 517 37,000  Level Miami Center
10:08PM 28.5944 -79.8756 29° Northeast 449 517 37,000  Level Miami Center
10:09PM 28.7044 -79.8100 28° Northeast 444 511 37,000  Level Miami Center
10:10PM 28.8122 -79.7417 29° Northeast 444 511 37,000  Level Miami Center
10:11PM 28.9261 -79.6736 28° Northeast 439 505 37,000  Level Miami Center
10:12PM 29.0339 -79.6075 28° Northeast 439 505 37,000  Level Miami Center
10:13PM 29.1517 -79.5511 23° Northeast 439 505 37,000  Level Miami Center
10:14PM 29.2614 -79.4967 23° Northeast 439 505 37,000  Level Miami Center
10:15PM 29.3914 -79.4617 13° North 439 505 37,000  Level Miami Center
10:17PM 29.5346 -79.3937 22° Northeast  Level FlightAware Approximate
10:17PM 29.6019 -79.3475 22° Northeast 429 494 37,000  Level Miami Center
10:18PM 29.7172 -79.3022 19° North 429 494 37,000  Level Miami Center
10:20PM 29.9583 -79.1961 21° North 439 505 37,000  Level Jacksonville Center
10:21PM 30.0717 -79.1508 19° North 434 499 37,000  Level Jacksonville Center
10:22PM 30.1850 -79.1008 21° North 434 499 37,000  Level Jacksonville Center
10:23PM 30.2964 -79.0581 18° North 422 486 37,000  Level Jacksonville Center
10:24PM 30.4119 -79.0125 19° North 422 486 37,000  Level Jacksonville Center
10:25PM 30.5256 -78.9669 19° North 422 486 37,000  Level Jacksonville Center
10:26PM 30.6431 -78.9208 19° North 429 494 37,000  Level Jacksonville Center
10:27PM 30.7606 -78.8750 19° North 431 496 37,000  Level Jacksonville Center
10:28PM 30.8758 -78.8264 20° North 436 502 37,000  Level Jacksonville Center
10:29PM 30.9869 -78.7781 20° North 436 502 37,000  Level Jacksonville Center
10:30PM 31.1108 -78.7361 16° North 441 507 37,000  Level Jacksonville Center
10:31PM 31.2264 -78.6922 18° North 436 502 37,000  Level Jacksonville Center
10:32PM 31.3497 -78.6358 21° North 436 502 37,000  Level Jacksonville Center
10:33PM 31.4653 -78.5914 18° North 436 502 37,000  Level Jacksonville Center
10:34PM 31.5825 -78.5444 19° North 436 502 37,000  Level Jacksonville Center
10:35PM 31.7058 -78.4900 21° North 441 507 37,000  Level Jacksonville Center
10:36PM 31.8253 -78.4428 19° North 448 516 37,000  Level Jacksonville Center
10:37PM 31.9425 -78.3931 20° North 448 516 37,000  Level Jacksonville Center
10:39PM 32.0658 -78.3410 20° North  Level FlightAware Approximate
10:39PM 32.1811 -78.2931 20° North 443 510 37,000  Level Jacksonville Center
10:40PM 32.2983 -78.2453 19° North 436 502 37,000  Level Jacksonville Center
10:41PM 32.4133 -78.1928 21° North 441 507 37,000  Level Jacksonville Center
10:42PM 32.5306 -78.1472 18° North 441 507 37,000  Level Jacksonville Center
10:43PM 32.6475 -78.0967 20° North 441 507 37,000  Level Jacksonville Center
10:44PM 32.7625 -78.0436 21° North 436 502 37,000  Level Jacksonville Center
10:45PM 32.8775 -77.9978 19° North 436 502 37,000  Level Jacksonville Center
10:46PM 32.9944 -77.9444 21° North 436 502 37,000  Level Jacksonville Center
10:47PM 33.1094 -77.8983 19° North 436 502 37,000  Level Jacksonville Center
10:49PM 33.3378 -77.8014 20° North 425 489 37,000  Level Washington Center
10:50PM 33.4556 -77.7522 19° North 425 489 37,000  Level Washington Center
10:51PM 33.5711 -77.7003 21° North 425 489 37,000  Level Washington Center
10:52PM 33.6869 -77.6508 20° North 435 501 37,000  Level Washington Center
10:53PM 33.8067 -77.6014 19° North 435 501 37,000  Level Washington Center
10:54PM 33.9222 -77.5489 21° North 435 501 37,000  Level Washington Center
10:55PM 34.0397 -77.4992 19° North 440 506 37,000  Level Washington Center
10:56PM 34.1469 -77.4564 18° North 445 512 37,000  Level Washington Center
10:57PM 34.2644 -77.4064 19° North 445 512 37,000  Level Washington Center
10:58PM 34.3800 -77.3561 20° North 445 512 37,000  Level Washington Center
10:59PM 34.4975 -77.3056 20° North 450 518 37,000  Level Washington Center
11:00PM 34.6131 -77.2500 22° Northeast 450 518 37,000  Level Washington Center
11:01PM 34.7347 -77.2019 18° North 450 518 37,000  Level Washington Center
11:02PM 34.8586 -77.1436 21° North 445 512 37,000  Level Washington Center
11:03PM 34.9656 -77.0975 19° North 445 512 37,000  Level Washington Center
11:04PM 35.0811 -77.0439 21° North 445 512 37,000  Level Washington Center
11:05PM 35.2069 -76.9850 21° North 445 512 37,000  Level Washington Center
11:06PM 35.3244 -76.9336 20° North 445 512 37,000  Level Washington Center
11:07PM 35.4375 -76.8844 20° North 439 505 37,000  Level Washington Center
11:08PM 35.5592 -76.8303 20° North 439 505 37,000  Level Washington Center
11:09PM 35.6578 -76.7808 22° Northeast 439 505 37,000  Level Washington Center
11:10PM 35.7750 -76.7289 20° North 439 505 37,000  Level Washington Center
11:11PM 35.8925 -76.6767 20° North 439 505 37,000  Level Washington Center
11:12PM 36.0075 -76.6242 20° North 439 505 37,000  Level Washington Center
11:13PM 36.1250 -76.5717 20° North 439 505 37,000  Level Washington Center
11:14PM 36.2400 -76.5167 21° North 439 505 37,000  Level Washington Center
11:15PM 36.3572 -76.4639 20° North 439 505 37,000  Level Washington Center
11:16PM 36.4703 -76.4108 21° North 439 505 37,000  Level Washington Center
11:17PM 36.5875 -76.3550 21° North 439 505 37,000  Level Washington Center
11:18PM 36.7131 -76.2889 23° Northeast 439 505 37,000  Level Washington Center
11:19PM 36.8303 -76.2356 20° North 439 505 37,000  Level Washington Center
11:20PM 36.9453 -76.1817 21° North 439 505 37,000  Level Washington Center
11:21PM 37.0625 -76.1228 22° Northeast 439 505 37,000  Level Washington Center
11:22PM 37.1628 -76.0297 36° Northeast 434 499 37,000  Level Washington Center
11:23PM 37.2611 -75.9364 37° Northeast 434 499 37,000  Level Washington Center
11:24PM 37.3575 -75.8453 37° Northeast 434 499 37,000  Level Washington Center
11:25PM 37.4556 -75.7514 37° Northeast 434 499 37,000  Level Washington Center
11:26PM 37.5536 -75.6600 36° Northeast 439 505 37,000  Level Washington Center
11:27PM 37.6539 -75.5656 37° Northeast 439 505 37,000  Level Washington Center
11:28PM 37.7539 -75.4736 36° Northeast 439 505 37,000  Level Washington Center
11:29PM 37.8539 -75.3786 37° Northeast 439 505 37,000  Level Washington Center
11:30PM 37.9536 -75.2836 37° Northeast 439 505 37,000  Level Washington Center
11:31PM 38.0536 -75.1883 37° Northeast 439 505 37,000  Level Washington Center
11:32PM 38.1553 -75.0953 36° Northeast 439 505 37,000  Level Washington Center
11:33PM 38.2550 -74.9942 39° Northeast 444 511 37,000  Level Washington Center
11:34PM 38.3442 -74.9061 38° Northeast 449 517 37,000  Level Washington Center
11:35PM 38.4417 -74.8125 37° Northeast 449 517 37,000  Level Washington Center
11:36PM 38.5408 -74.7131 38° Northeast 443 510 37,000  Level Washington Center
11:37PM 38.6403 -74.6161 37° Northeast 443 510 37,000  Level Washington Center
11:38PM 38.7478 -74.5111 37° Northeast 443 510 37,000  Level Washington Center
11:39PM 38.8469 -74.4161 37° Northeast 448 516 37,000  Level Washington Center
11:40PM 38.9481 -74.3183 37° Northeast 448 516 37,000  Level Washington Center
11:41PM 39.0469 -74.2206 38° Northeast 448 516 37,000  Level Washington Center
11:42PM 39.1439 -74.1222 38° Northeast 448 516 37,000  Level Washington Center
11:43PM 39.2447 -74.0264 36° Northeast 448 516 37,000  Level Washington Center
11:44PM 39.3414 -73.9306 37° Northeast 448 516 37,000  Level Washington Center
11:45PM 39.4400 -73.8286 39° Northeast 448 516 37,000  Level Washington Center
11:47PM 39.5908 -73.6756 38° Northeast 468 539 37,000  Level Boston Center
11:48PM 39.6731 -73.5936 37° Northeast 468 539 37,000  Level Boston Center
11:49PM 39.7908 -73.4714 39° Northeast 463 533 37,000  Level Boston Center
11:50PM 39.8897 -73.3731 37° Northeast 452 520 37,000  Level Boston Center
11:51PM 39.9967 -73.2689 37° Northeast 446 513 37,000  Level Boston Center
11:52PM 40.0953 -73.1669 38° Northeast 446 513 37,000  Level Boston Center
11:53PM 40.1919 -73.0675 38° Northeast 446 513 37,000  Level Boston Center
11:54PM 40.2797 -72.9733 39° Northeast 446 513 37,000  Level Boston Center
11:55PM 40.3781 -72.8678 39° Northeast 446 513 37,000  Level Boston Center
11:56PM 40.4764 -72.7675 38° Northeast 446 513 37,000  Level Boston Center
11:57PM 40.5767 -72.6614 39° Northeast 446 513 37,000  Level Boston Center
11:58PM 40.6747 -72.5606 38° Northeast 446 513 37,000  Level Boston Center
11:59PM 40.7833 -72.4511 37° Northeast 446 513 37,000 -840 Level Boston Center
12:00AM 40.8686 -72.3467 43° Northeast 453 521 35,400 -2,160 Descending Boston Center
12:01AM 40.9644 -72.2283 43° Northeast 458 527 32,700 -2,580 Descending Boston Center
12:02AM 41.0600 -72.1153 42° Northeast 464 534 30,300 -2,280 Descending Boston Center
12:03AM 41.1533 -71.9992 43° Northeast 464 534 28,200 -2,100 Descending Boston Center
12:04AM 41.2444 -71.8881 43° Northeast 451 519 26,200 -2,100 Descending Boston Center
12:05AM 41.3314 -71.7822 42° Northeast 438 504 24,000 -2,160 Descending Boston Center
12:06AM 41.4203 -71.6761 42° Northeast 425 489 21,900 -2,100 Descending Boston Center
12:07AM 41.5031 -71.5725 43° Northeast 420 483 19,900 -2,100 Descending Boston Center
12:08AM 41.5856 -71.4714 42° Northeast 408 470 17,700 -2,220 Descending Boston Center
12:09AM 41.6700 -71.3592 45° Northeast 390 449 15,500 -2,100 Descending Boston Center
12:10AM 41.7400 -71.2717 43° Northeast 385 443 13,600 -2,100 Descending Boston Center
12:11AM 41.8222 -71.1669 43° Northeast 369 425 11,300 -1,500 Descending Boston Center
12:12AM 41.8772 -71.0711 52° Northeast 357 411 10,600 -720 Descending Boston Center
12:13AM 41.9158 -70.9808 60° Northeast 326 375 9,900 -660 Descending Boston Center
12:14AM 41.9664 -70.8625 60° Northeast 312 359 9,300 -600 Descending Boston Center
12:15AM 42.0108 -70.7719 57° Northeast 301 346 8,800 -720 Descending Boston Center
12:16AM 42.0725 -70.7117 36° Northeast 275 316 7,900 -1,200 Descending Boston Center
12:17AM 42.1492 -70.6758 19° North 275 316 6,500 -1,500 Descending Boston Center
12:18AM 42.2222 -70.6906 352° North 257 296 5,000 -1,500 Descending Boston Center
12:19AM 42.2933 -70.7111 348° North 252 290 3,600 -1,080 Descending Boston Center
12:20AM 42.3628 -70.7400 343° North 257 296 2,900 -360 Descending Boston Center
12:21AM 42.4300 -70.7778 337° Northwest 257 296 2,900 -240 Level Boston Center
12:22AM 42.4658 -70.8189 320° Northwest 228 262 2,500 -540 Descending Boston Center
12:23AM 42.4667 -70.9333 271° West 191 220 1,700 -600 Descending KA90
12:24AM 42.4333 -70.9667 216° Southwest 134 154 1,200 -600 Descending KA90
12:25AM 42.4000 -70.9833 200° South 133 153 600 -600 Descending KA90
12:27AM 42.3630 -71.0064 North  Level Estimated
12:34AM 42.3630 -71.0064 North  Level Estimated
12:35AM 42.3630 -71.0064 North  Level Estimated